createdAt,value
2023-04-03T00:00:38.201Z,9.443732
2023-04-03T00:01:37.955Z,9.443770
2023-04-03T00:02:38.090Z,9.443628
2023-04-03T00:03:38.974Z,9.443641
2023-04-03T00:04:37.963Z,9.443734
2023-04-03T00:05:37.939Z,9.443768
2023-04-03T00:06:37.914Z,9.443824
2023-04-03T00:07:37.910Z,9.443885
2023-04-03T00:08:37.919Z,9.443867
2023-04-03T00:09:37.908Z,9.443841
2023-04-03T00:10:38.327Z,9.443832
2023-04-03T00:11:37.880Z,9.443799
2023-04-03T00:12:37.893Z,9.443767
2023-04-03T00:13:37.879Z,9.443862
2023-04-03T00:14:37.860Z,9.443908
2023-04-03T00:15:37.892Z,9.443866
2023-04-03T00:16:37.923Z,9.443803
2023-04-03T00:17:37.879Z,9.443798
2023-04-03T00:18:37.872Z,9.443819
2023-04-03T00:19:37.833Z,9.443815
2023-04-03T00:20:38.215Z,9.443789
2023-04-03T00:21:37.908Z,9.443748
2023-04-03T00:22:37.824Z,9.443767
2023-04-03T00:23:37.825Z,9.443758
2023-04-03T00:24:37.825Z,9.443862
2023-04-03T00:25:37.796Z,9.443723
2023-04-03T00:26:37.826Z,9.443738
2023-04-03T00:27:37.810Z,9.443719
2023-04-03T00:28:37.818Z,9.443720
2023-04-03T00:29:37.767Z,9.443764
2023-04-03T00:30:38.122Z,9.443784
2023-04-03T00:32:11.442Z,9.443696
2023-04-03T00:32:37.853Z,9.443616
2023-04-03T00:33:37.806Z,9.443666
2023-04-03T00:34:37.790Z,9.443748
2023-04-03T00:35:37.808Z,9.443679
2023-04-03T00:37:11.249Z,9.443723
2023-04-03T00:37:37.779Z,9.443583
2023-04-03T00:38:37.800Z,9.443488
2023-04-03T00:40:11.268Z,9.443599
2023-04-03T00:40:38.224Z,9.443627
2023-04-03T00:41:37.762Z,9.443618
2023-04-03T00:42:37.721Z,9.443585
2023-04-03T00:44:11.133Z,9.443688
2023-04-03T00:44:38.601Z,9.443583
2023-04-03T00:45:37.754Z,9.443453
2023-04-03T00:46:37.750Z,9.443414
2023-04-03T00:47:37.724Z,9.443463
2023-04-03T00:48:37.726Z,9.443388
2023-04-03T00:49:37.656Z,9.443384
2023-04-03T00:50:37.874Z,9.443349
2023-04-03T00:51:37.737Z,9.443451
2023-04-03T00:52:37.613Z,9.443589
2023-04-03T00:53:37.620Z,9.443525
2023-04-03T00:54:37.645Z,9.443551
2023-04-03T00:55:37.603Z,9.443395
2023-04-03T00:56:37.582Z,9.443614
2023-04-03T00:57:37.587Z,9.443395
2023-04-03T00:58:37.580Z,9.443546
2023-04-03T00:59:37.569Z,9.443643
2023-04-03T01:00:37.863Z,9.443367
2023-04-03T01:01:37.628Z,9.443555
2023-04-03T01:02:37.569Z,9.443607
2023-04-03T01:03:37.571Z,9.443542
2023-04-03T01:04:37.773Z,9.443480
2023-04-03T01:05:37.544Z,9.443465
2023-04-03T01:06:37.542Z,9.443462
2023-04-03T01:07:37.511Z,9.443494
2023-04-03T01:08:37.517Z,9.443439
2023-04-03T01:09:37.502Z,9.443445
2023-04-03T01:10:37.738Z,9.443429
2023-04-03T01:11:37.512Z,9.443487
2023-04-03T01:12:37.484Z,9.443550
2023-04-03T01:13:37.487Z,9.443620
2023-04-03T01:14:37.499Z,9.443553
2023-04-03T01:15:37.526Z,9.443601
2023-04-03T01:16:37.487Z,9.443530
2023-04-03T01:17:37.487Z,9.443567
2023-04-03T01:18:38.480Z,9.443588
2023-04-03T01:19:37.478Z,9.443613
2023-04-03T01:20:38.137Z,9.443657
2023-04-03T01:21:37.453Z,9.443549
2023-04-03T01:22:37.434Z,9.443607
2023-04-03T01:23:37.462Z,9.443498
2023-04-03T01:24:37.429Z,9.443607
2023-04-03T01:25:37.435Z,9.443666
2023-04-03T01:26:37.418Z,9.443687
2023-04-03T01:27:37.396Z,9.443664
2023-04-03T01:28:37.409Z,9.443680
2023-04-03T01:29:37.381Z,9.443649
2023-04-03T01:30:37.774Z,9.443700
2023-04-03T01:31:37.431Z,9.443664
2023-04-03T01:32:37.443Z,9.443618
2023-04-03T01:33:37.451Z,9.443604
2023-04-03T01:34:37.366Z,9.443606
2023-04-03T01:35:37.454Z,9.443545
2023-04-03T01:36:37.363Z,9.443573
2023-04-03T01:37:37.367Z,9.443645
2023-04-03T01:38:37.351Z,9.443673
2023-04-03T01:39:37.350Z,9.443632
2023-04-03T01:40:37.460Z,9.443659
2023-04-03T01:41:37.302Z,9.443670
2023-04-03T01:42:37.323Z,9.443694
2023-04-03T01:43:37.343Z,9.443700
2023-04-03T01:44:37.341Z,9.443724
2023-04-03T01:45:37.294Z,9.443762
2023-04-03T01:46:37.276Z,9.443722
2023-04-03T01:47:37.289Z,9.443691
2023-04-03T01:48:37.303Z,9.443886
2023-04-03T01:49:37.268Z,9.443860
2023-04-03T01:50:37.556Z,9.443761
2023-04-03T01:51:37.254Z,9.443723
2023-04-03T01:52:37.252Z,9.443679
2023-04-03T01:53:37.236Z,9.443684
2023-04-03T01:54:37.247Z,9.443704
2023-04-03T01:55:37.315Z,9.443649
2023-04-03T01:56:37.236Z,9.443746
2023-04-03T01:57:37.198Z,9.443747
2023-04-03T01:58:37.225Z,9.443715
2023-04-03T01:59:37.207Z,9.443761
2023-04-03T02:00:37.564Z,9.443812
2023-04-03T02:01:37.542Z,9.443700
2023-04-03T02:02:37.237Z,9.443643
2023-04-03T02:03:37.303Z,9.443720
2023-04-03T02:04:37.213Z,9.443748
2023-04-03T02:05:37.187Z,9.443774
2023-04-03T02:06:37.144Z,9.443784
2023-04-03T02:07:37.187Z,9.443746
2023-04-03T02:08:37.155Z,9.443689
2023-04-03T02:09:37.170Z,9.443750
2023-04-03T02:10:37.475Z,9.443581
2023-04-03T02:11:37.130Z,9.443650
2023-04-03T02:12:37.132Z,9.443607
2023-04-03T02:13:37.212Z,9.443576
2023-04-03T02:14:37.095Z,9.443590
2023-04-03T02:15:37.157Z,9.443742
2023-04-03T02:16:37.164Z,9.443663
2023-04-03T02:17:37.131Z,9.443641
2023-04-03T02:18:37.093Z,9.443749
2023-04-03T02:19:37.195Z,9.443742
2023-04-03T02:20:37.237Z,9.443829
2023-04-03T02:21:37.055Z,9.443738
2023-04-03T02:22:37.076Z,9.443688
2023-04-03T02:23:37.166Z,9.443666
2023-04-03T02:24:37.074Z,9.443642
2023-04-03T02:25:38.710Z,9.443586
2023-04-03T02:26:38.017Z,9.443678
2023-04-03T02:27:37.042Z,9.443696
2023-04-03T02:28:37.038Z,9.443606
2023-04-03T02:29:36.997Z,9.443607
2023-04-03T02:30:37.265Z,9.443716
2023-04-03T02:31:37.050Z,9.443667
2023-04-03T02:32:37.085Z,9.443578
2023-04-03T02:33:37.036Z,9.443625
2023-04-03T02:34:37.033Z,9.443681
2023-04-03T02:35:37.066Z,9.443756
2023-04-03T02:36:36.993Z,9.443670
2023-04-03T02:37:37.046Z,9.443602
2023-04-03T02:38:37.113Z,9.443521
2023-04-03T02:39:37.038Z,9.443552
2023-04-03T02:40:37.025Z,9.443588
2023-04-03T02:41:36.965Z,9.443673
2023-04-03T02:42:36.934Z,9.443638
2023-04-03T02:43:36.919Z,9.443608
2023-04-03T02:44:36.941Z,9.443531
2023-04-03T02:45:36.900Z,9.443451
2023-04-03T02:46:36.958Z,9.443584
2023-04-03T02:47:36.965Z,9.443813
2023-04-03T02:48:36.898Z,9.443756
2023-04-03T02:49:36.898Z,9.443581
2023-04-03T02:50:37.004Z,9.443497
2023-04-03T02:51:36.905Z,9.443595
2023-04-03T02:52:36.856Z,9.443451
2023-04-03T02:53:36.848Z,9.443343
2023-04-03T02:54:36.887Z,9.443484
2023-04-03T02:55:36.842Z,9.443489
2023-04-03T02:56:36.836Z,9.443339
2023-04-03T02:57:36.873Z,9.443489
2023-04-03T02:58:36.830Z,9.443724
2023-04-03T02:59:36.894Z,9.443698
2023-04-03T03:00:37.033Z,9.443419
2023-04-03T03:01:36.879Z,9.443399
2023-04-03T03:02:36.849Z,9.443521
2023-04-03T03:03:36.821Z,9.443376
2023-04-03T03:04:36.849Z,9.443745
2023-04-03T03:05:36.782Z,9.443812
2023-04-03T03:06:36.803Z,9.443719
2023-04-03T03:07:36.799Z,9.443724
2023-04-03T03:08:36.769Z,9.443732
2023-04-03T03:09:36.762Z,9.443756
2023-04-03T03:10:36.986Z,9.443823
2023-04-03T03:11:36.767Z,9.443745
2023-04-03T03:12:36.779Z,9.443734
2023-04-03T03:13:36.742Z,9.443636
2023-04-03T03:14:36.723Z,9.443757
2023-04-03T03:15:36.753Z,9.443778
2023-04-03T03:16:36.729Z,9.443654
2023-04-03T03:17:36.793Z,9.443637
2023-04-03T03:18:36.693Z,9.443664
2023-04-03T03:19:36.708Z,9.443653
2023-04-03T03:20:36.844Z,9.443653
2023-04-03T03:21:36.730Z,9.443681
2023-04-03T03:22:36.698Z,9.443673
2023-04-03T03:23:36.700Z,9.443683
2023-04-03T03:24:36.671Z,9.443707
2023-04-03T03:25:36.826Z,9.443702
2023-04-03T03:26:36.999Z,9.443698
2023-04-03T03:27:36.658Z,9.443738
2023-04-03T03:28:36.625Z,9.443692
2023-04-03T03:29:36.661Z,9.443671
2023-04-03T03:30:36.690Z,9.443604
2023-04-03T03:31:37.798Z,9.443653
2023-04-03T03:32:36.614Z,9.443673
2023-04-03T03:33:37.815Z,9.443693
2023-04-03T03:34:36.619Z,9.443712
2023-04-03T03:35:36.861Z,9.443709
2023-04-03T03:36:36.622Z,9.443713
2023-04-03T03:37:36.598Z,9.443700
2023-04-03T03:38:36.640Z,9.443690
2023-04-03T03:39:37.739Z,9.443641
2023-04-03T03:40:36.587Z,9.443727
2023-04-03T03:41:36.594Z,9.443725
2023-04-03T03:42:36.573Z,9.443776
2023-04-03T03:43:36.534Z,9.443755
2023-04-03T03:44:36.584Z,9.443765
2023-04-03T03:45:36.732Z,9.443737
2023-04-03T03:46:36.576Z,9.443742
2023-04-03T03:47:36.539Z,9.443707
2023-04-03T03:48:36.526Z,9.443751
2023-04-03T03:49:36.578Z,9.443728
2023-04-03T03:50:36.517Z,9.443717
2023-04-03T03:51:36.482Z,9.443705
2023-04-03T03:52:36.518Z,9.443707
2023-04-03T03:53:36.471Z,9.443723
2023-04-03T03:54:36.483Z,9.443674
2023-04-03T03:55:36.539Z,9.443704
2023-04-03T03:56:36.533Z,9.443760
2023-04-03T03:57:36.459Z,9.443794
2023-04-03T03:58:36.448Z,9.443717
2023-04-03T03:59:36.478Z,9.443646
2023-04-03T04:00:36.449Z,9.443718
2023-04-03T04:01:37.437Z,9.443766
2023-04-03T04:02:36.690Z,9.443730
2023-04-03T04:03:36.517Z,9.443729
2023-04-03T04:04:36.455Z,9.443710
2023-04-03T04:05:36.732Z,9.443670
2023-04-03T04:06:36.406Z,9.443619
2023-04-03T04:07:36.421Z,9.443645
2023-04-03T04:08:36.391Z,9.443685
2023-04-03T04:09:36.398Z,9.443669
2023-04-03T04:10:36.392Z,9.443715
2023-04-03T04:11:36.381Z,9.443729
2023-04-03T04:12:36.380Z,9.443760
2023-04-03T04:13:36.420Z,9.443725
2023-04-03T04:14:36.354Z,9.443791
2023-04-03T04:15:36.683Z,9.443661
2023-04-03T04:16:36.402Z,9.443677
2023-04-03T04:17:37.367Z,9.443779
2023-04-03T04:18:36.329Z,9.443680
2023-04-03T04:19:36.356Z,9.443616
2023-04-03T04:20:36.334Z,9.443647
2023-04-03T04:21:36.335Z,9.443631
2023-04-03T04:22:36.310Z,9.443676
2023-04-03T04:23:36.323Z,9.443773
2023-04-03T04:24:38.435Z,9.443701
2023-04-03T04:25:36.534Z,9.443649
2023-04-03T04:26:36.278Z,9.443615
2023-04-03T04:27:36.288Z,9.443604
2023-04-03T04:28:36.286Z,9.443657
2023-04-03T04:29:36.249Z,9.443724
2023-04-03T04:30:36.279Z,9.443895
2023-04-03T04:31:36.265Z,9.443832
2023-04-03T04:32:36.276Z,9.443753
2023-04-03T04:33:36.269Z,9.443764
2023-04-03T04:34:36.227Z,9.443795
2023-04-03T04:35:36.567Z,9.443761
2023-04-03T04:36:36.369Z,9.443727
2023-04-03T04:37:36.221Z,9.443712
2023-04-03T04:38:36.250Z,9.443789
2023-04-03T04:39:36.230Z,9.443792
2023-04-03T04:40:36.217Z,9.443787
2023-04-03T04:41:36.240Z,9.443790
2023-04-03T04:42:36.162Z,9.443834
2023-04-03T04:43:36.180Z,9.443763
2023-04-03T04:44:36.177Z,9.443701
2023-04-03T04:45:36.471Z,9.443604
2023-04-03T04:46:36.212Z,9.443561
2023-04-03T04:47:36.185Z,9.443728
2023-04-03T04:48:36.164Z,9.443766
2023-04-03T04:49:36.135Z,9.443786
2023-04-03T04:50:36.161Z,9.443808
2023-04-03T04:51:48.365Z,9.443871
2023-04-03T04:52:37.240Z,9.443902
2023-04-03T04:53:36.137Z,9.443749
2023-04-03T04:54:36.116Z,9.443772
2023-04-03T04:55:36.271Z,9.443805
2023-04-03T04:56:36.099Z,9.443708
2023-04-03T04:57:36.129Z,9.443734
2023-04-03T04:58:36.097Z,9.443650
2023-04-03T04:59:36.128Z,9.443721
2023-04-03T05:00:36.102Z,9.443712
2023-04-03T05:01:36.112Z,9.443594
2023-04-03T05:02:36.125Z,9.443601
2023-04-03T05:03:36.092Z,9.443678
2023-04-03T05:04:36.105Z,9.443673
2023-04-03T05:05:36.335Z,9.443717
2023-04-03T05:06:36.146Z,9.443697
2023-04-03T05:07:36.027Z,9.443810
2023-04-03T05:08:36.019Z,9.443668
2023-04-03T05:09:36.009Z,9.443570
2023-04-03T05:10:36.098Z,9.443575
2023-04-03T05:11:36.032Z,9.443670
2023-04-03T05:12:36.007Z,9.443600
2023-04-03T05:13:36.031Z,9.443633
2023-04-03T05:14:35.992Z,9.443703
2023-04-03T05:15:36.217Z,9.443779
2023-04-03T05:16:36.003Z,9.443733
2023-04-03T05:17:36.001Z,9.443707
2023-04-03T05:18:35.964Z,9.443647
2023-04-03T05:19:35.950Z,9.443685
2023-04-03T05:20:35.972Z,9.443704
2023-04-03T05:21:35.920Z,9.443679
2023-04-03T05:22:36.058Z,9.443659
2023-04-03T05:23:42.532Z,9.443613
2023-04-03T05:28:17.623Z,9.443855
2023-04-03T05:29:17.567Z,9.443714
2023-04-03T05:30:17.571Z,9.443715
2023-04-03T05:31:17.624Z,9.443662
2023-04-03T05:32:17.650Z,9.443716
2023-04-03T05:33:17.580Z,9.443670
2023-04-03T05:34:17.538Z,9.443680
2023-04-03T05:35:17.605Z,9.443714
2023-04-03T05:36:17.558Z,9.443646
2023-04-03T05:37:17.585Z,9.443641
2023-04-03T05:38:17.596Z,9.443671
2023-04-03T05:39:18.494Z,9.443686
2023-04-03T05:40:18.721Z,9.443679
2023-04-03T05:41:18.505Z,9.443728
2023-04-03T05:42:17.494Z,9.443726
2023-04-03T05:43:17.550Z,9.443683
2023-04-03T05:44:17.507Z,9.443626
2023-04-03T05:45:17.556Z,9.443627
2023-04-03T05:46:17.518Z,9.443642
2023-04-03T05:47:17.530Z,9.443645
2023-04-03T05:48:17.553Z,9.443689
2023-04-03T05:49:17.486Z,9.443579
2023-04-03T05:50:17.519Z,9.443559
2023-04-03T05:51:17.461Z,9.443543
2023-04-03T05:52:17.449Z,9.443534
2023-04-03T05:53:17.436Z,9.443545
2023-04-03T05:54:17.488Z,9.443653
2023-04-03T05:55:17.455Z,9.443633
2023-04-03T05:56:17.409Z,9.443601
2023-04-03T05:57:17.457Z,9.443517
2023-04-03T05:58:17.409Z,9.443501
2023-04-03T05:59:17.388Z,9.443478
2023-04-03T06:00:17.417Z,9.443512
2023-04-03T06:01:17.386Z,9.443531
2023-04-03T06:02:17.398Z,9.443664
2023-04-03T06:03:17.484Z,9.443665
2023-04-03T06:04:17.556Z,9.443678
2023-04-03T06:05:17.376Z,9.443516
2023-04-03T06:06:17.379Z,9.443484
2023-04-03T06:07:17.369Z,9.443468
2023-04-03T06:08:17.344Z,9.443630
2023-04-03T06:09:17.371Z,9.443553
2023-04-03T06:10:17.310Z,9.443583
2023-04-03T06:11:17.364Z,9.443598
2023-04-03T06:12:17.304Z,9.443699
2023-04-03T06:13:17.308Z,9.443846
2023-04-03T06:14:17.335Z,9.443724
2023-04-03T06:15:17.296Z,9.443695
2023-04-03T06:16:17.304Z,9.443756
2023-04-03T06:17:17.507Z,9.443848
2023-04-03T06:18:17.278Z,9.443769
2023-04-03T06:19:17.326Z,9.443681
2023-04-03T06:20:17.260Z,9.443655
2023-04-03T06:21:17.519Z,9.443582
2023-04-03T06:22:17.274Z,9.443697
2023-04-03T06:23:17.251Z,9.443696
2023-04-03T06:24:17.302Z,9.443692
2023-04-03T06:25:17.282Z,9.443677
2023-04-03T06:26:17.271Z,9.443655
2023-04-03T06:27:17.238Z,9.443637
2023-04-03T06:28:17.202Z,9.443689
2023-04-03T06:29:17.223Z,9.443674
2023-04-03T06:30:17.896Z,9.443708
2023-04-03T06:31:17.338Z,9.443723
2023-04-03T06:32:17.202Z,9.443710
2023-04-03T06:33:17.226Z,9.443737
2023-04-03T06:34:17.260Z,9.443713
2023-04-03T06:35:17.190Z,9.443760
2023-04-03T06:36:17.190Z,9.443758
2023-04-03T06:37:17.185Z,9.443752
2023-04-03T06:38:17.159Z,9.443733
2023-04-03T06:39:17.148Z,9.443820
2023-04-03T06:40:17.364Z,9.443812
2023-04-03T06:41:17.972Z,9.443797
2023-04-03T06:42:17.118Z,9.443748
2023-04-03T06:43:17.185Z,9.443751
2023-04-03T06:44:17.147Z,9.443744
2023-04-03T06:45:17.139Z,9.443717
2023-04-03T06:46:18.159Z,9.443752
2023-04-03T06:47:17.140Z,9.443788
2023-04-03T06:48:17.108Z,9.443774
2023-04-03T06:49:17.082Z,9.443760
2023-04-03T06:50:17.106Z,9.443825
2023-04-03T06:51:17.123Z,9.443730
2023-04-03T06:52:17.090Z,9.443680
2023-04-03T06:53:17.043Z,9.443732
2023-04-03T06:54:17.095Z,9.443735
2023-04-03T06:55:17.065Z,9.443728
2023-04-03T06:56:17.061Z,9.443710
2023-04-03T06:57:17.136Z,9.443721
2023-04-03T06:58:17.047Z,9.443697
2023-04-03T06:59:17.038Z,9.443702
2023-04-03T07:00:17.056Z,9.443706
2023-04-03T07:01:17.152Z,9.443636
2023-04-03T07:02:17.032Z,9.443591
2023-04-03T07:03:17.020Z,9.443650
2023-04-03T07:04:17.025Z,9.443669
2023-04-03T07:05:16.985Z,9.443777
2023-04-03T07:06:16.984Z,9.443680
2023-04-03T07:07:17.009Z,9.443723
2023-04-03T07:08:16.984Z,9.443734
2023-04-03T07:09:17.004Z,9.443659
2023-04-03T07:10:17.008Z,9.443670
2023-04-03T07:11:16.943Z,9.443643
2023-04-03T07:12:16.969Z,9.443717
2023-04-03T07:13:16.965Z,9.443707
2023-04-03T07:14:16.956Z,9.443609
2023-04-03T07:15:16.977Z,9.443663
2023-04-03T07:16:16.995Z,9.443639
2023-04-03T07:17:16.914Z,9.443773
2023-04-03T07:18:16.896Z,9.443690
2023-04-03T07:19:16.929Z,9.443734
2023-04-03T07:20:16.914Z,9.443585
2023-04-03T07:21:16.909Z,9.443566
2023-04-03T07:22:16.896Z,9.443789
2023-04-03T07:23:16.898Z,9.443657
2023-04-03T07:24:17.002Z,9.443648
2023-04-03T07:25:16.867Z,9.443678
2023-04-03T07:26:16.877Z,9.443687
2023-04-03T07:27:16.918Z,9.443742
2023-04-03T07:28:16.847Z,9.443662
2023-04-03T07:29:16.852Z,9.443636
2023-04-03T07:30:16.837Z,9.443609
2023-04-03T07:31:16.921Z,9.443644
2023-04-03T07:32:16.886Z,9.443632
2023-04-03T07:33:16.811Z,9.443648
2023-04-03T07:34:16.826Z,9.443668
2023-04-03T07:35:16.859Z,9.443713
2023-04-03T07:36:16.842Z,9.443675
2023-04-03T07:37:16.824Z,9.443656
2023-04-03T07:38:16.799Z,9.443666
2023-04-03T07:39:16.793Z,9.443686
2023-04-03T07:40:18.102Z,9.443724
2023-04-03T07:41:16.732Z,9.443708
2023-04-03T07:42:16.808Z,9.443708
2023-04-03T07:43:16.769Z,9.443703
2023-04-03T07:44:16.783Z,9.443709
2023-04-03T07:45:16.761Z,9.443711
2023-04-03T07:46:16.787Z,9.443725
2023-04-03T07:47:16.809Z,9.443707
2023-04-03T07:48:16.720Z,9.443676
2023-04-03T07:49:16.716Z,9.443685
2023-04-03T07:50:16.735Z,9.443693
2023-04-03T07:51:16.727Z,9.443689
2023-04-03T07:52:16.723Z,9.443719
2023-04-03T07:53:16.792Z,9.443711
2023-04-03T07:54:16.696Z,9.443667
2023-04-03T07:55:16.726Z,9.443675
2023-04-03T07:56:16.711Z,9.443712
2023-04-03T07:57:16.687Z,9.443675
2023-04-03T07:58:16.650Z,9.443688
2023-04-03T07:59:16.688Z,9.443708
2023-04-03T08:00:16.724Z,9.443703
2023-04-03T08:01:16.782Z,9.443693
2023-04-03T08:02:16.708Z,9.443691
2023-04-03T08:03:16.774Z,9.443661
2023-04-03T08:04:16.760Z,9.443621
2023-04-03T08:05:16.640Z,9.443635
2023-04-03T08:06:18.573Z,9.443702
2023-04-03T08:07:16.642Z,9.443676
2023-04-03T08:08:17.709Z,9.443656
2023-04-03T08:09:16.624Z,9.443667
2023-04-03T08:10:16.629Z,9.443659
2023-04-03T08:11:16.565Z,9.443660
2023-04-03T08:12:16.609Z,9.443728
2023-04-03T08:13:16.568Z,9.443741
2023-04-03T08:14:16.633Z,9.443714
2023-04-03T08:15:16.585Z,9.443681
2023-04-03T08:16:16.584Z,9.443664
2023-04-03T08:17:16.546Z,9.443597
2023-04-03T08:18:16.547Z,9.443701
2023-04-03T08:19:25.352Z,9.443704
2023-04-03T08:20:18.498Z,9.443715
2023-04-03T08:21:16.520Z,9.443799
2023-04-03T08:22:16.484Z,9.443653
2023-04-03T08:23:17.263Z,9.443705
2023-04-03T08:24:17.478Z,9.443695
2023-04-03T08:25:16.495Z,9.443623
2023-04-03T08:26:16.457Z,9.443621
2023-04-03T08:27:16.498Z,9.443741
2023-04-03T08:28:16.497Z,9.443687
2023-04-03T08:29:17.514Z,9.443766
2023-04-03T08:30:16.440Z,9.443717
2023-04-03T08:31:16.541Z,9.443751
2023-04-03T08:32:16.433Z,9.443694
2023-04-03T08:33:16.459Z,9.443723
2023-04-03T08:34:16.458Z,9.443731
2023-04-03T08:35:16.429Z,9.443726
2023-04-03T08:36:16.492Z,9.443713
2023-04-03T08:37:16.461Z,9.443810
2023-04-03T08:38:16.398Z,9.443619
2023-04-03T08:39:16.432Z,9.443629
2023-04-03T08:40:16.389Z,9.443672
2023-04-03T08:41:16.389Z,9.443743
2023-04-03T08:42:17.385Z,9.443817
2023-04-03T08:43:16.377Z,9.443761
2023-04-03T08:44:16.357Z,9.443821
2023-04-03T08:45:16.368Z,9.443572
2023-04-03T08:46:16.465Z,9.443582
2023-04-03T08:47:16.363Z,9.443671
2023-04-03T08:48:16.432Z,9.443714
2023-04-03T08:49:16.392Z,9.443707
2023-04-03T08:50:16.320Z,9.443688
2023-04-03T08:51:16.421Z,9.443722
2023-04-03T08:52:16.321Z,9.443698
2023-04-03T08:53:16.323Z,9.443743
2023-04-03T08:54:16.316Z,9.443725
2023-04-03T08:55:16.304Z,9.443607
2023-04-03T08:56:16.986Z,9.443665
2023-04-03T08:57:16.329Z,9.443747
2023-04-03T08:58:16.295Z,9.443772
2023-04-03T08:59:17.262Z,9.443721
2023-04-03T09:00:16.311Z,9.443838
2023-04-03T09:01:16.308Z,9.443744
2023-04-03T09:02:16.233Z,9.443706
2023-04-03T09:03:16.304Z,9.443682
2023-04-03T09:04:17.083Z,9.443835
2023-04-03T09:05:16.242Z,9.443711
2023-04-03T09:06:16.283Z,9.443800
2023-04-03T09:07:16.300Z,9.443775
2023-04-03T09:08:16.225Z,9.443807
2023-04-03T09:09:16.199Z,9.443821
2023-04-03T09:10:16.182Z,9.443788
2023-04-03T09:11:16.156Z,9.443674
2023-04-03T09:12:17.194Z,9.443686
2023-04-03T09:13:16.175Z,9.443636
2023-04-03T09:14:16.181Z,9.443635
2023-04-03T09:15:17.946Z,9.443604
2023-04-03T09:16:16.234Z,9.443760
2023-04-03T09:17:16.227Z,9.443829
2023-04-03T09:18:16.177Z,9.443954
2023-04-03T09:19:16.191Z,9.443716
2023-04-03T09:20:17.181Z,9.443707
2023-04-03T09:21:16.183Z,9.443791
2023-04-03T09:22:16.122Z,9.443661
2023-04-03T09:23:16.209Z,9.443666
2023-04-03T09:24:16.130Z,9.443831
2023-04-03T09:25:16.112Z,9.443784
2023-04-03T09:26:16.175Z,9.443754
2023-04-03T09:27:16.141Z,9.443742
2023-04-03T09:28:16.077Z,9.443767
2023-04-03T09:29:16.149Z,9.443789
2023-04-03T09:30:16.099Z,9.443733
2023-04-03T09:31:16.202Z,9.443715
2023-04-03T09:32:16.095Z,9.443714
2023-04-03T09:33:16.068Z,9.443671
2023-04-03T09:34:16.073Z,9.443711
2023-04-03T09:35:20.569Z,9.443643
2023-04-03T09:36:18.052Z,9.443609
2023-04-03T09:37:16.026Z,9.443622
2023-04-03T09:38:15.998Z,9.443628
2023-04-03T09:39:16.074Z,9.443607
2023-04-03T09:40:16.036Z,9.443657
2023-04-03T09:41:16.012Z,9.443725
2023-04-03T09:42:15.980Z,9.443673
2023-04-03T09:43:15.967Z,9.443719
2023-04-03T09:44:16.002Z,9.443665
2023-04-03T09:45:15.943Z,9.443617
2023-04-03T09:46:15.986Z,9.443674
2023-04-03T09:47:15.999Z,9.443628
2023-04-03T09:48:16.785Z,9.443584
2023-04-03T09:49:17.027Z,9.443666
2023-04-03T09:50:15.923Z,9.443661
2023-04-03T09:51:15.907Z,9.443517
2023-04-03T09:52:15.905Z,9.443601
2023-04-03T09:53:15.923Z,9.443589
2023-04-03T09:54:15.946Z,9.443653
2023-04-03T09:55:15.991Z,9.443649
2023-04-03T09:56:15.910Z,9.443660
2023-04-03T09:57:15.917Z,9.443654
2023-04-03T09:58:15.912Z,9.443667
2023-04-03T09:59:15.945Z,9.443667
2023-04-03T10:00:15.919Z,9.443661
2023-04-03T10:01:16.020Z,9.443642
2023-04-03T10:02:16.534Z,9.443598
2023-04-03T10:03:15.829Z,9.443690
2023-04-03T10:04:15.955Z,9.443731
2023-04-03T10:05:15.905Z,9.443808
2023-04-03T10:06:15.837Z,9.443722
2023-04-03T10:07:15.830Z,9.443727
2023-04-03T10:08:15.828Z,9.443739
2023-04-03T10:09:15.838Z,9.443650
2023-04-03T10:10:15.935Z,9.443659
2023-04-03T10:11:15.900Z,9.443642
2023-04-03T10:12:15.853Z,9.443646
2023-04-03T10:13:21.130Z,9.443641
2023-04-03T10:14:17.806Z,9.443699
2023-04-03T10:15:15.767Z,9.443734
2023-04-03T10:16:15.784Z,9.443749
2023-04-03T10:17:15.747Z,9.443788
2023-04-03T10:18:24.450Z,9.443746
2023-04-03T10:19:17.768Z,9.443804
2023-04-03T10:20:15.764Z,9.443754
2023-04-03T10:21:26.768Z,9.443724
2023-04-03T10:22:17.709Z,9.443762
2023-04-03T10:23:15.756Z,9.443789
2023-04-03T10:24:15.753Z,9.443789
2023-04-03T10:25:15.697Z,9.443771
2023-04-03T10:26:15.697Z,9.443725
2023-04-03T10:27:15.773Z,9.443744
2023-04-03T10:28:15.713Z,9.443738
2023-04-03T10:29:15.664Z,9.443685
2023-04-03T10:30:15.784Z,9.443697
2023-04-03T10:31:15.760Z,9.443756
2023-04-03T10:32:15.651Z,9.443810
2023-04-03T10:33:15.649Z,9.443797
2023-04-03T10:34:15.634Z,9.443749
2023-04-03T10:35:15.648Z,9.443749
2023-04-03T10:36:15.633Z,9.443728
2023-04-03T10:37:15.626Z,9.443780
2023-04-03T10:38:15.612Z,9.443727
2023-04-03T10:39:15.647Z,9.443674
2023-04-03T10:40:15.762Z,9.443757
2023-04-03T10:41:16.476Z,9.443629
2023-04-03T10:42:17.894Z,9.443592
2023-04-03T10:43:15.686Z,9.443559
2023-04-03T10:44:15.687Z,9.443711
2023-04-03T10:45:15.583Z,9.443688
2023-04-03T10:46:15.650Z,9.443628
2023-04-03T10:47:15.552Z,9.443916
2023-04-03T10:48:15.612Z,9.443827
2023-04-03T10:49:15.560Z,9.443572
2023-04-03T10:50:15.655Z,9.443763
2023-04-03T10:51:15.578Z,9.443697
2023-04-03T10:52:15.542Z,9.443622
2023-04-03T10:53:15.539Z,9.443787
2023-04-03T10:54:15.514Z,9.443719
2023-04-03T10:55:15.539Z,9.443701
2023-04-03T10:56:15.562Z,9.443707
2023-04-03T10:57:15.537Z,9.443689
2023-04-03T10:58:15.695Z,9.443858
2023-04-03T10:59:15.659Z,9.443899
2023-04-03T11:00:15.490Z,9.443724
2023-04-03T11:01:15.505Z,9.443737
2023-04-03T11:02:15.556Z,9.443805
2023-04-03T11:03:15.491Z,9.443960
2023-04-03T11:04:15.480Z,9.444006
2023-04-03T11:05:15.462Z,9.444081
2023-04-03T11:06:15.429Z,9.444235
2023-04-03T11:07:15.482Z,9.444149
2023-04-03T11:08:15.419Z,9.443900
2023-04-03T11:09:15.468Z,9.443913
2023-04-03T11:10:15.921Z,9.443766
2023-04-03T11:11:15.429Z,9.443701
2023-04-03T11:12:15.433Z,9.443635
2023-04-03T11:13:15.407Z,9.443705
2023-04-03T11:14:15.397Z,9.443769
2023-04-03T11:15:15.466Z,9.443867
2023-04-03T11:16:15.424Z,9.443766
2023-04-03T11:17:15.480Z,9.443740
2023-04-03T11:18:15.379Z,9.443706
2023-04-03T11:19:15.377Z,9.443690
2023-04-03T11:20:15.370Z,9.443693
2023-04-03T11:21:15.337Z,9.443721
2023-04-03T11:22:15.360Z,9.443745
2023-04-03T11:23:15.338Z,9.443784
2023-04-03T11:24:15.332Z,9.443784
2023-04-03T11:25:15.326Z,9.443797
2023-04-03T11:26:15.310Z,9.443762
2023-04-03T11:27:15.288Z,9.443759
2023-04-03T11:28:15.283Z,9.443693
2023-04-03T11:29:24.874Z,9.443745
2023-04-03T11:30:17.266Z,9.443752
2023-04-03T11:31:15.384Z,9.443751
2023-04-03T11:32:15.258Z,9.443750
2023-04-03T11:33:15.244Z,9.443763
2023-04-03T11:34:15.296Z,9.443806
2023-04-03T11:35:15.265Z,9.443797
2023-04-03T11:36:25.020Z,9.443776
2023-04-03T11:37:17.246Z,9.443768
2023-04-03T11:38:15.229Z,9.443771
2023-04-03T11:39:15.220Z,9.443760
2023-04-03T11:40:15.302Z,9.443760
2023-04-03T11:41:15.201Z,9.443766
2023-04-03T11:42:15.233Z,9.443761
2023-04-03T11:43:15.226Z,9.443738
2023-04-03T11:44:15.209Z,9.443769
2023-04-03T11:45:15.193Z,9.443728
2023-04-03T11:46:15.212Z,9.443761
2023-04-03T11:47:15.262Z,9.443712
2023-04-03T11:48:24.481Z,9.443716